sensor_id;sensor_type;location;lat;lon;timestamp;temperature;humidity
24814;DHT22;12904;50.088;11.414;2023-12-20T00:00:54;4.30;99.90
24814;DHT22;12904;50.088;11.414;2023-12-20T00:03:20;4.30;99.90
24814;DHT22;12904;50.088;11.414;2023-12-20T00:05:46;4.30;99.90
24814;DHT22;12904;50.088;11.414;2023-12-20T00:08:12;4.30;99.90
24814;DHT22;12904;50.088;11.414;2023-12-20T00:10:38;4.30;99.90
24814;DHT22;12904;50.088;11.414;2023-12-20T00:13:03;4.40;99.90
24814;DHT22;12904;50.088;11.414;2023-12-20T00:15:29;4.40;99.90
24814;DHT22;12904;50.088;11.414;2023-12-20T00:17:54;4.40;99.90
24814;DHT22;12904;50.088;11.414;2023-12-20T00:20:20;4.40;99.90
24814;DHT22;12904;50.088;11.414;2023-12-20T00:22:46;4.40;99.90
24814;DHT22;12904;50.088;11.414;2023-12-20T00:25:11;4.40;99.90
24814;DHT22;12904;50.088;11.414;2023-12-20T00:27:37;4.50;99.90
24814;DHT22;12904;50.088;11.414;2023-12-20T00:30:03;4.50;99.90
24814;DHT22;12904;50.088;11.414;2023-12-20T00:32:28;4.50;99.90
24814;DHT22;12904;50.088;11.414;2023-12-20T00:34:54;4.50;99.90
24814;DHT22;12904;50.088;11.414;2023-12-20T00:37:20;4.50;99.90
24814;DHT22;12904;50.088;11.414;2023-12-20T00:39:45;4.60;99.90
24814;DHT22;12904;50.088;11.414;2023-12-20T00:42:11;4.50;99.90
24814;DHT22;12904;50.088;11.414;2023-12-20T00:44:36;4.50;99.90
24814;DHT22;12904;50.088;11.414;2023-12-20T00:47:02;4.60;99.90
24814;DHT22;12904;50.088;11.414;2023-12-20T00:49:28;4.50;99.90
24814;DHT22;12904;50.088;11.414;2023-12-20T00:51:54;4.50;99.90
24814;DHT22;12904;50.088;11.414;2023-12-20T00:54:19;4.60;99.90
24814;DHT22;12904;50.088;11.414;2023-12-20T00:56:45;4.50;99.90
24814;DHT22;12904;50.088;11.414;2023-12-20T00:59:10;4.60;99.90
24814;DHT22;12904;50.088;11.414;2023-12-20T01:01:36;4.60;99.90
24814;DHT22;12904;50.088;11.414;2023-12-20T01:04:02;4.60;99.90
24814;DHT22;12904;50.088;11.414;2023-12-20T01:06:27;4.60;99.90
24814;DHT22;12904;50.088;11.414;2023-12-20T01:08:53;4.60;99.90
24814;DHT22;12904;50.088;11.414;2023-12-20T01:11:19;4.60;99.90
24814;DHT22;12904;50.088;11.414;2023-12-20T01:13:44;4.60;99.90
24814;DHT22;12904;50.088;11.414;2023-12-20T01:16:11;4.60;99.90
24814;DHT22;12904;50.088;11.414;2023-12-20T01:18:37;4.60;99.90
24814;DHT22;12904;50.088;11.414;2023-12-20T01:21:03;4.60;99.90
24814;DHT22;12904;50.088;11.414;2023-12-20T01:23:29;4.60;99.90
24814;DHT22;12904;50.088;11.414;2023-12-20T01:25:55;4.60;99.90
24814;DHT22;12904;50.088;11.414;2023-12-20T01:28:20;4.60;99.90
24814;DHT22;12904;50.088;11.414;2023-12-20T01:30:46;4.60;99.90
24814;DHT22;12904;50.088;11.414;2023-12-20T01:33:11;4.60;99.90
24814;DHT22;12904;50.088;11.414;2023-12-20T01:35:37;4.60;99.90
24814;DHT22;12904;50.088;11.414;2023-12-20T01:38:03;4.60;99.90
24814;DHT22;12904;50.088;11.414;2023-12-20T01:40:29;4.60;99.90
24814;DHT22;12904;50.088;11.414;2023-12-20T01:42:59;4.60;99.90
24814;DHT22;12904;50.088;11.414;2023-12-20T01:45:25;4.60;99.90
24814;DHT22;12904;50.088;11.414;2023-12-20T01:47:50;4.60;99.90
24814;DHT22;12904;50.088;11.414;2023-12-20T01:50:16;4.60;99.90
24814;DHT22;12904;50.088;11.414;2023-12-20T01:52:43;4.60;99.90
24814;DHT22;12904;50.088;11.414;2023-12-20T01:55:09;4.60;99.90
24814;DHT22;12904;50.088;11.414;2023-12-20T01:57:40;4.60;99.90
24814;DHT22;12904;50.088;11.414;2023-12-20T02:00:06;4.60;99.90
24814;DHT22;12904;50.088;11.414;2023-12-20T02:02:36;4.60;99.90
24814;DHT22;12904;50.088;11.414;2023-12-20T02:05:02;4.60;99.90
24814;DHT22;12904;50.088;11.414;2023-12-20T02:07:29;4.60;99.90
24814;DHT22;12904;50.088;11.414;2023-12-20T02:09:56;4.50;99.90
24814;DHT22;12904;50.088;11.414;2023-12-20T02:12:22;4.60;99.90
24814;DHT22;12904;50.088;11.414;2023-12-20T02:14:48;4.60;99.90
24814;DHT22;12904;50.088;11.414;2023-12-20T02:17:14;4.50;99.90
24814;DHT22;12904;50.088;11.414;2023-12-20T02:19:40;4.50;99.90
24814;DHT22;12904;50.088;11.414;2023-12-20T02:22:08;4.60;99.90
24814;DHT22;12904;50.088;11.414;2023-12-20T02:24:33;4.50;99.90
24814;DHT22;12904;50.088;11.414;2023-12-20T02:26:59;4.50;99.90
24814;DHT22;12904;50.088;11.414;2023-12-20T02:29:25;4.50;99.90
24814;DHT22;12904;50.088;11.414;2023-12-20T02:31:51;4.50;99.90
24814;DHT22;12904;50.088;11.414;2023-12-20T02:34:16;4.50;99.90
24814;DHT22;12904;50.088;11.414;2023-12-20T02:36:42;4.50;99.90
24814;DHT22;12904;50.088;11.414;2023-12-20T02:39:07;4.50;99.90
24814;DHT22;12904;50.088;11.414;2023-12-20T02:41:33;4.50;99.90
24814;DHT22;12904;50.088;11.414;2023-12-20T02:43:59;4.50;99.90
24814;DHT22;12904;50.088;11.414;2023-12-20T02:46:24;4.50;99.90
24814;DHT22;12904;50.088;11.414;2023-12-20T02:48:50;4.40;99.90
24814;DHT22;12904;50.088;11.414;2023-12-20T02:51:15;4.40;99.90
24814;DHT22;12904;50.088;11.414;2023-12-20T02:53:41;4.40;99.90
24814;DHT22;12904;50.088;11.414;2023-12-20T02:56:07;4.40;99.90
24814;DHT22;12904;50.088;11.414;2023-12-20T02:58:32;4.30;99.90
24814;DHT22;12904;50.088;11.414;2023-12-20T03:00:58;4.30;99.90
24814;DHT22;12904;50.088;11.414;2023-12-20T03:03:24;4.30;99.90
24814;DHT22;12904;50.088;11.414;2023-12-20T03:05:49;4.30;99.90
24814;DHT22;12904;50.088;11.414;2023-12-20T03:08:15;4.30;99.90
24814;DHT22;12904;50.088;11.414;2023-12-20T03:10:40;4.30;99.90
24814;DHT22;12904;50.088;11.414;2023-12-20T03:13:06;4.30;99.90
24814;DHT22;12904;50.088;11.414;2023-12-20T03:15:32;4.30;99.90
24814;DHT22;12904;50.088;11.414;2023-12-20T03:17:57;4.30;99.90
24814;DHT22;12904;50.088;11.414;2023-12-20T03:20:24;4.20;99.90
24814;DHT22;12904;50.088;11.414;2023-12-20T03:22:51;4.20;99.90
24814;DHT22;12904;50.088;11.414;2023-12-20T03:25:17;4.30;99.90
24814;DHT22;12904;50.088;11.414;2023-12-20T03:27:43;4.20;99.90
24814;DHT22;12904;50.088;11.414;2023-12-20T03:30:09;4.20;99.90
24814;DHT22;12904;50.088;11.414;2023-12-20T03:32:34;4.20;99.90
24814;DHT22;12904;50.088;11.414;2023-12-20T03:35:00;4.20;99.90
24814;DHT22;12904;50.088;11.414;2023-12-20T03:37:26;4.20;99.90
24814;DHT22;12904;50.088;11.414;2023-12-20T03:39:51;4.20;99.90
24814;DHT22;12904;50.088;11.414;2023-12-20T03:42:17;4.20;99.90
24814;DHT22;12904;50.088;11.414;2023-12-20T03:44:42;4.10;99.90
24814;DHT22;12904;50.088;11.414;2023-12-20T03:47:08;4.10;99.90
24814;DHT22;12904;50.088;11.414;2023-12-20T03:49:34;4.10;99.90
24814;DHT22;12904;50.088;11.414;2023-12-20T03:52:02;4.10;99.90
24814;DHT22;12904;50.088;11.414;2023-12-20T03:54:28;4.10;99.90
24814;DHT22;12904;50.088;11.414;2023-12-20T03:56:54;4.10;99.90
24814;DHT22;12904;50.088;11.414;2023-12-20T03:59:19;4.10;99.90
24814;DHT22;12904;50.088;11.414;2023-12-20T04:01:45;4.10;99.90
24814;DHT22;12904;50.088;11.414;2023-12-20T04:04:11;4.10;99.90
24814;DHT22;12904;50.088;11.414;2023-12-20T04:06:37;4.10;99.90
24814;DHT22;12904;50.088;11.414;2023-12-20T04:09:03;4.10;99.90
24814;DHT22;12904;50.088;11.414;2023-12-20T04:11:29;4.10;99.90
24814;DHT22;12904;50.088;11.414;2023-12-20T04:13:54;4.10;99.90
24814;DHT22;12904;50.088;11.414;2023-12-20T04:16:20;4.10;99.90
24814;DHT22;12904;50.088;11.414;2023-12-20T04:18:45;4.10;99.90
24814;DHT22;12904;50.088;11.414;2023-12-20T04:21:11;4.00;99.90
24814;DHT22;12904;50.088;11.414;2023-12-20T04:23:37;4.10;99.90
24814;DHT22;12904;50.088;11.414;2023-12-20T04:26:02;4.00;99.90
24814;DHT22;12904;50.088;11.414;2023-12-20T04:28:28;4.00;99.90
24814;DHT22;12904;50.088;11.414;2023-12-20T04:30:55;4.00;99.90
24814;DHT22;12904;50.088;11.414;2023-12-20T04:33:22;4.00;99.90
24814;DHT22;12904;50.088;11.414;2023-12-20T04:35:48;4.00;99.90
24814;DHT22;12904;50.088;11.414;2023-12-20T04:38:13;4.00;99.90
24814;DHT22;12904;50.088;11.414;2023-12-20T04:40:39;4.00;99.90
24814;DHT22;12904;50.088;11.414;2023-12-20T04:43:06;4.00;99.90
24814;DHT22;12904;50.088;11.414;2023-12-20T04:45:32;4.00;99.90
24814;DHT22;12904;50.088;11.414;2023-12-20T04:47:58;4.00;99.90
24814;DHT22;12904;50.088;11.414;2023-12-20T04:50:23;4.00;99.90
24814;DHT22;12904;50.088;11.414;2023-12-20T04:52:49;4.00;99.90
24814;DHT22;12904;50.088;11.414;2023-12-20T04:55:15;4.00;99.90
24814;DHT22;12904;50.088;11.414;2023-12-20T04:57:40;4.00;99.90
24814;DHT22;12904;50.088;11.414;2023-12-20T05:00:06;4.00;99.90
24814;DHT22;12904;50.088;11.414;2023-12-20T05:02:34;4.00;99.90
24814;DHT22;12904;50.088;11.414;2023-12-20T05:05:00;4.00;99.90
24814;DHT22;12904;50.088;11.414;2023-12-20T05:07:26;4.00;99.90
24814;DHT22;12904;50.088;11.414;2023-12-20T05:09:51;4.00;99.90
24814;DHT22;12904;50.088;11.414;2023-12-20T05:12:17;4.00;99.90
24814;DHT22;12904;50.088;11.414;2023-12-20T05:14:43;4.00;99.90
24814;DHT22;12904;50.088;11.414;2023-12-20T05:17:08;4.00;99.90
24814;DHT22;12904;50.088;11.414;2023-12-20T05:19:34;4.00;99.90
24814;DHT22;12904;50.088;11.414;2023-12-20T05:22:02;3.90;99.90
24814;DHT22;12904;50.088;11.414;2023-12-20T05:24:28;4.00;99.90
24814;DHT22;12904;50.088;11.414;2023-12-20T05:26:54;4.00;99.90
24814;DHT22;12904;50.088;11.414;2023-12-20T05:29:20;4.00;99.90
24814;DHT22;12904;50.088;11.414;2023-12-20T05:31:45;4.00;99.90
24814;DHT22;12904;50.088;11.414;2023-12-20T05:34:11;4.00;99.90
24814;DHT22;12904;50.088;11.414;2023-12-20T05:36:37;4.00;99.90
24814;DHT22;12904;50.088;11.414;2023-12-20T05:39:03;4.00;99.90
24814;DHT22;12904;50.088;11.414;2023-12-20T05:41:30;4.00;99.90
24814;DHT22;12904;50.088;11.414;2023-12-20T05:43:56;4.00;99.90
24814;DHT22;12904;50.088;11.414;2023-12-20T05:46:23;4.10;99.90
24814;DHT22;12904;50.088;11.414;2023-12-20T05:48:49;4.10;99.90
24814;DHT22;12904;50.088;11.414;2023-12-20T05:51:17;4.10;99.90
24814;DHT22;12904;50.088;11.414;2023-12-20T05:53:42;4.10;99.90
24814;DHT22;12904;50.088;11.414;2023-12-20T05:56:09;4.10;99.90
24814;DHT22;12904;50.088;11.414;2023-12-20T05:58:35;4.10;99.90
24814;DHT22;12904;50.088;11.414;2023-12-20T06:01:03;4.10;99.90
24814;DHT22;12904;50.088;11.414;2023-12-20T06:03:30;4.20;99.90
24814;DHT22;12904;50.088;11.414;2023-12-20T06:05:55;4.20;99.90
24814;DHT22;12904;50.088;11.414;2023-12-20T06:08:21;4.20;99.90
24814;DHT22;12904;50.088;11.414;2023-12-20T06:10:47;4.20;99.90
24814;DHT22;12904;50.088;11.414;2023-12-20T06:13:12;4.20;99.90
24814;DHT22;12904;50.088;11.414;2023-12-20T06:15:39;4.20;99.90
24814;DHT22;12904;50.088;11.414;2023-12-20T06:18:05;4.20;99.90
24814;DHT22;12904;50.088;11.414;2023-12-20T06:20:31;4.20;99.90
24814;DHT22;12904;50.088;11.414;2023-12-20T06:22:57;4.20;99.90
24814;DHT22;12904;50.088;11.414;2023-12-20T06:25:23;4.20;99.90
24814;DHT22;12904;50.088;11.414;2023-12-20T06:27:48;4.20;99.90
24814;DHT22;12904;50.088;11.414;2023-12-20T06:30:16;4.30;99.90
24814;DHT22;12904;50.088;11.414;2023-12-20T06:32:42;4.30;99.90
24814;DHT22;12904;50.088;11.414;2023-12-20T06:35:09;4.30;99.90
24814;DHT22;12904;50.088;11.414;2023-12-20T06:37:34;4.30;99.90
24814;DHT22;12904;50.088;11.414;2023-12-20T06:40:01;4.30;99.90
24814;DHT22;12904;50.088;11.414;2023-12-20T06:42:27;4.30;99.90
24814;DHT22;12904;50.088;11.414;2023-12-20T06:44:52;4.30;99.90
24814;DHT22;12904;50.088;11.414;2023-12-20T06:47:18;4.30;99.90
24814;DHT22;12904;50.088;11.414;2023-12-20T06:49:44;4.30;99.90
24814;DHT22;12904;50.088;11.414;2023-12-20T06:52:09;4.40;99.90
24814;DHT22;12904;50.088;11.414;2023-12-20T06:54:35;4.40;99.90
24814;DHT22;12904;50.088;11.414;2023-12-20T06:57:01;4.40;99.90
24814;DHT22;12904;50.088;11.414;2023-12-20T06:59:28;4.50;99.90
24814;DHT22;12904;50.088;11.414;2023-12-20T07:01:54;4.50;99.90
24814;DHT22;12904;50.088;11.414;2023-12-20T07:04:20;4.50;99.90
24814;DHT22;12904;50.088;11.414;2023-12-20T07:06:47;4.50;99.90
24814;DHT22;12904;50.088;11.414;2023-12-20T07:09:14;4.50;99.90
24814;DHT22;12904;50.088;11.414;2023-12-20T07:11:39;4.50;99.90
24814;DHT22;12904;50.088;11.414;2023-12-20T07:14:05;4.50;99.90
24814;DHT22;12904;50.088;11.414;2023-12-20T07:16:31;4.50;99.90
24814;DHT22;12904;50.088;11.414;2023-12-20T07:18:57;4.50;99.90
24814;DHT22;12904;50.088;11.414;2023-12-20T07:21:23;4.50;99.90
24814;DHT22;12904;50.088;11.414;2023-12-20T07:23:48;4.50;99.90
24814;DHT22;12904;50.088;11.414;2023-12-20T07:26:15;4.50;99.90
24814;DHT22;12904;50.088;11.414;2023-12-20T07:28:41;4.50;99.90
24814;DHT22;12904;50.088;11.414;2023-12-20T07:31:06;4.50;99.90
24814;DHT22;12904;50.088;11.414;2023-12-20T07:33:32;4.50;99.90
24814;DHT22;12904;50.088;11.414;2023-12-20T07:35:59;4.50;99.90
24814;DHT22;12904;50.088;11.414;2023-12-20T07:38:25;4.50;99.90
24814;DHT22;12904;50.088;11.414;2023-12-20T07:40:50;4.50;99.90
24814;DHT22;12904;50.088;11.414;2023-12-20T07:43:16;4.40;99.90
24814;DHT22;12904;50.088;11.414;2023-12-20T07:45:42;4.40;99.90
24814;DHT22;12904;50.088;11.414;2023-12-20T07:48:07;4.40;99.90
24814;DHT22;12904;50.088;11.414;2023-12-20T07:50:34;4.30;99.90
24814;DHT22;12904;50.088;11.414;2023-12-20T07:52:59;4.30;99.90
24814;DHT22;12904;50.088;11.414;2023-12-20T07:55:26;4.30;99.90
24814;DHT22;12904;50.088;11.414;2023-12-20T07:57:52;4.30;99.90
24814;DHT22;12904;50.088;11.414;2023-12-20T08:00:18;4.30;99.90
24814;DHT22;12904;50.088;11.414;2023-12-20T08:02:44;4.30;99.90
24814;DHT22;12904;50.088;11.414;2023-12-20T08:05:09;4.30;99.90
24814;DHT22;12904;50.088;11.414;2023-12-20T08:07:35;4.40;99.90
24814;DHT22;12904;50.088;11.414;2023-12-20T08:10:01;4.40;99.90
24814;DHT22;12904;50.088;11.414;2023-12-20T08:12:26;4.40;99.90
24814;DHT22;12904;50.088;11.414;2023-12-20T08:14:53;4.40;99.90
24814;DHT22;12904;50.088;11.414;2023-12-20T08:17:19;4.50;99.90
24814;DHT22;12904;50.088;11.414;2023-12-20T08:19:45;4.50;99.90
24814;DHT22;12904;50.088;11.414;2023-12-20T08:22:11;4.50;99.90
24814;DHT22;12904;50.088;11.414;2023-12-20T08:24:37;4.50;99.90
24814;DHT22;12904;50.088;11.414;2023-12-20T08:27:04;4.50;99.90
24814;DHT22;12904;50.088;11.414;2023-12-20T08:29:30;4.40;99.90
24814;DHT22;12904;50.088;11.414;2023-12-20T08:31:55;4.50;99.90
24814;DHT22;12904;50.088;11.414;2023-12-20T08:34:21;4.50;99.90
24814;DHT22;12904;50.088;11.414;2023-12-20T08:36:47;4.50;99.90
24814;DHT22;12904;50.088;11.414;2023-12-20T08:39:13;4.50;99.90
24814;DHT22;12904;50.088;11.414;2023-12-20T08:41:38;4.50;99.90
24814;DHT22;12904;50.088;11.414;2023-12-20T08:44:04;4.50;99.90
24814;DHT22;12904;50.088;11.414;2023-12-20T08:46:30;4.50;99.90
24814;DHT22;12904;50.088;11.414;2023-12-20T08:48:56;4.60;99.90
24814;DHT22;12904;50.088;11.414;2023-12-20T08:51:21;4.60;99.90
24814;DHT22;12904;50.088;11.414;2023-12-20T08:53:49;4.50;99.90
24814;DHT22;12904;50.088;11.414;2023-12-20T08:56:15;4.50;99.90
24814;DHT22;12904;50.088;11.414;2023-12-20T08:58:41;4.40;99.90
24814;DHT22;12904;50.088;11.414;2023-12-20T09:01:07;4.40;99.90
24814;DHT22;12904;50.088;11.414;2023-12-20T09:03:33;4.40;99.90
24814;DHT22;12904;50.088;11.414;2023-12-20T09:05:58;4.40;99.90
24814;DHT22;12904;50.088;11.414;2023-12-20T09:08:24;4.40;99.90
24814;DHT22;12904;50.088;11.414;2023-12-20T09:10:49;4.60;99.90
24814;DHT22;12904;50.088;11.414;2023-12-20T09:13:15;4.80;99.90
24814;DHT22;12904;50.088;11.414;2023-12-20T09:15:41;5.10;99.90
24814;DHT22;12904;50.088;11.414;2023-12-20T09:18:06;5.30;99.90
24814;DHT22;12904;50.088;11.414;2023-12-20T09:20:32;5.60;99.90
24814;DHT22;12904;50.088;11.414;2023-12-20T09:22:58;6.00;99.90
24814;DHT22;12904;50.088;11.414;2023-12-20T09:25:24;6.40;99.90
24814;DHT22;12904;50.088;11.414;2023-12-20T09:27:51;6.80;99.90
24814;DHT22;12904;50.088;11.414;2023-12-20T09:30:18;6.90;99.90
24814;DHT22;12904;50.088;11.414;2023-12-20T09:32:44;6.70;99.90
24814;DHT22;12904;50.088;11.414;2023-12-20T09:35:10;6.40;99.90
24814;DHT22;12904;50.088;11.414;2023-12-20T09:37:36;6.10;99.90
24814;DHT22;12904;50.088;11.414;2023-12-20T09:40:02;5.80;99.90
24814;DHT22;12904;50.088;11.414;2023-12-20T09:42:56;5.70;99.90
24814;DHT22;12904;50.088;11.414;2023-12-20T09:45:22;5.50;99.90
24814;DHT22;12904;50.088;11.414;2023-12-20T09:47:50;5.40;99.90
24814;DHT22;12904;50.088;11.414;2023-12-20T09:50:18;5.40;99.90
24814;DHT22;12904;50.088;11.414;2023-12-20T09:52:48;5.40;99.90
24814;DHT22;12904;50.088;11.414;2023-12-20T09:55:15;5.50;99.90
24814;DHT22;12904;50.088;11.414;2023-12-20T09:57:42;5.60;99.90
24814;DHT22;12904;50.088;11.414;2023-12-20T10:00:08;5.60;99.90
24814;DHT22;12904;50.088;11.414;2023-12-20T10:02:35;5.60;99.90
24814;DHT22;12904;50.088;11.414;2023-12-20T10:05:06;5.60;99.90
24814;DHT22;12904;50.088;11.414;2023-12-20T10:07:35;5.60;99.90
24814;DHT22;12904;50.088;11.414;2023-12-20T10:10:02;5.60;99.90
24814;DHT22;12904;50.088;11.414;2023-12-20T10:12:28;5.50;99.90
24814;DHT22;12904;50.088;11.414;2023-12-20T10:14:53;5.50;99.90
24814;DHT22;12904;50.088;11.414;2023-12-20T10:17:21;5.50;99.90
24814;DHT22;12904;50.088;11.414;2023-12-20T10:19:47;5.50;99.90
24814;DHT22;12904;50.088;11.414;2023-12-20T10:22:13;5.50;99.90
24814;DHT22;12904;50.088;11.414;2023-12-20T10:24:40;5.50;99.90
24814;DHT22;12904;50.088;11.414;2023-12-20T10:27:07;5.50;99.90
24814;DHT22;12904;50.088;11.414;2023-12-20T10:29:36;5.50;99.90
24814;DHT22;12904;50.088;11.414;2023-12-20T10:32:35;5.50;99.90
24814;DHT22;12904;50.088;11.414;2023-12-20T10:35:00;5.50;99.90
24814;DHT22;12904;50.088;11.414;2023-12-20T10:37:26;5.50;99.90
24814;DHT22;12904;50.088;11.414;2023-12-20T10:39:53;5.50;99.90
24814;DHT22;12904;50.088;11.414;2023-12-20T10:42:25;5.60;99.90
24814;DHT22;12904;50.088;11.414;2023-12-20T10:44:51;5.60;99.90
24814;DHT22;12904;50.088;11.414;2023-12-20T10:47:19;5.60;99.90
24814;DHT22;12904;50.088;11.414;2023-12-20T10:49:45;5.60;99.90
24814;DHT22;12904;50.088;11.414;2023-12-20T10:52:12;5.70;99.90
24814;DHT22;12904;50.088;11.414;2023-12-20T10:54:41;5.60;99.90
24814;DHT22;12904;50.088;11.414;2023-12-20T10:57:07;5.60;99.90
24814;DHT22;12904;50.088;11.414;2023-12-20T10:59:33;5.50;99.90
24814;DHT22;12904;50.088;11.414;2023-12-20T11:02:03;5.40;99.90
24814;DHT22;12904;50.088;11.414;2023-12-20T11:04:53;5.40;99.90
24814;DHT22;12904;50.088;11.414;2023-12-20T11:07:33;5.40;99.90
24814;DHT22;12904;50.088;11.414;2023-12-20T11:10:13;5.40;99.90
24814;DHT22;12904;50.088;11.414;2023-12-20T11:12:51;5.40;99.90
24814;DHT22;12904;50.088;11.414;2023-12-20T11:15:19;5.40;99.90
24814;DHT22;12904;50.088;11.414;2023-12-20T11:17:45;5.40;99.90
24814;DHT22;12904;50.088;11.414;2023-12-20T11:20:14;5.40;99.90
24814;DHT22;12904;50.088;11.414;2023-12-20T11:22:52;5.40;99.90
24814;DHT22;12904;50.088;11.414;2023-12-20T11:25:18;5.40;99.90
24814;DHT22;12904;50.088;11.414;2023-12-20T11:27:43;5.50;99.90
24814;DHT22;12904;50.088;11.414;2023-12-20T11:30:10;5.50;99.90
24814;DHT22;12904;50.088;11.414;2023-12-20T11:32:37;5.50;99.90
24814;DHT22;12904;50.088;11.414;2023-12-20T11:37:38;5.40;99.90
24814;DHT22;12904;50.088;11.414;2023-12-20T11:40:13;5.40;99.90
24814;DHT22;12904;50.088;11.414;2023-12-20T11:42:49;5.40;99.90
24814;DHT22;12904;50.088;11.414;2023-12-20T11:45:19;5.40;99.90
24814;DHT22;12904;50.088;11.414;2023-12-20T11:47:48;5.40;99.90
24814;DHT22;12904;50.088;11.414;2023-12-20T11:50:17;5.40;99.90
24814;DHT22;12904;50.088;11.414;2023-12-20T11:52:42;5.40;99.90
24814;DHT22;12904;50.088;11.414;2023-12-20T11:55:08;5.40;99.90
24814;DHT22;12904;50.088;11.414;2023-12-20T11:57:34;5.40;99.90
24814;DHT22;12904;50.088;11.414;2023-12-20T12:00:02;5.40;99.90
24814;DHT22;12904;50.088;11.414;2023-12-20T12:02:28;5.40;99.90
24814;DHT22;12904;50.088;11.414;2023-12-20T12:04:53;5.40;99.90
24814;DHT22;12904;50.088;11.414;2023-12-20T12:07:20;5.40;99.90
24814;DHT22;12904;50.088;11.414;2023-12-20T12:09:46;5.40;99.90
24814;DHT22;12904;50.088;11.414;2023-12-20T12:12:12;5.40;99.90
24814;DHT22;12904;50.088;11.414;2023-12-20T12:14:38;5.50;99.90
24814;DHT22;12904;50.088;11.414;2023-12-20T12:17:10;5.50;99.90
24814;DHT22;12904;50.088;11.414;2023-12-20T12:19:36;5.50;99.90
24814;DHT22;12904;50.088;11.414;2023-12-20T12:22:06;5.50;99.90
24814;DHT22;12904;50.088;11.414;2023-12-20T12:24:48;5.50;99.90
24814;DHT22;12904;50.088;11.414;2023-12-20T12:27:15;5.50;99.90
24814;DHT22;12904;50.088;11.414;2023-12-20T12:30:04;5.50;99.90
24814;DHT22;12904;50.088;11.414;2023-12-20T12:32:29;5.50;99.90
24814;DHT22;12904;50.088;11.414;2023-12-20T12:34:55;5.50;99.90
24814;DHT22;12904;50.088;11.414;2023-12-20T12:37:20;5.50;99.90
24814;DHT22;12904;50.088;11.414;2023-12-20T12:39:49;5.50;99.90
24814;DHT22;12904;50.088;11.414;2023-12-20T12:42:15;5.50;99.90
24814;DHT22;12904;50.088;11.414;2023-12-20T12:44:40;5.50;99.90
24814;DHT22;12904;50.088;11.414;2023-12-20T12:47:06;5.50;99.90
24814;DHT22;12904;50.088;11.414;2023-12-20T12:49:33;5.50;99.90
24814;DHT22;12904;50.088;11.414;2023-12-20T12:51:59;5.50;99.90
24814;DHT22;12904;50.088;11.414;2023-12-20T12:54:24;5.40;99.90
24814;DHT22;12904;50.088;11.414;2023-12-20T12:56:50;5.50;99.90
24814;DHT22;12904;50.088;11.414;2023-12-20T12:59:16;5.50;99.90
24814;DHT22;12904;50.088;11.414;2023-12-20T13:01:42;5.50;99.90
24814;DHT22;12904;50.088;11.414;2023-12-20T13:04:08;5.50;99.90
24814;DHT22;12904;50.088;11.414;2023-12-20T13:06:37;5.50;99.90
24814;DHT22;12904;50.088;11.414;2023-12-20T13:09:03;5.50;99.90
24814;DHT22;12904;50.088;11.414;2023-12-20T13:11:30;5.50;99.90
24814;DHT22;12904;50.088;11.414;2023-12-20T13:13:57;5.50;99.90
24814;DHT22;12904;50.088;11.414;2023-12-20T13:16:23;5.50;99.90
24814;DHT22;12904;50.088;11.414;2023-12-20T13:18:50;5.50;99.90
24814;DHT22;12904;50.088;11.414;2023-12-20T13:21:15;5.50;99.90
24814;DHT22;12904;50.088;11.414;2023-12-20T13:23:42;5.50;99.90
24814;DHT22;12904;50.088;11.414;2023-12-20T13:26:07;5.50;99.90
24814;DHT22;12904;50.088;11.414;2023-12-20T13:28:33;5.40;99.90
24814;DHT22;12904;50.088;11.414;2023-12-20T13:30:59;5.40;99.90
24814;DHT22;12904;50.088;11.414;2023-12-20T13:33:25;5.40;99.90
24814;DHT22;12904;50.088;11.414;2023-12-20T13:35:51;5.40;99.90
24814;DHT22;12904;50.088;11.414;2023-12-20T13:38:16;5.40;99.90
24814;DHT22;12904;50.088;11.414;2023-12-20T13:40:42;5.40;99.90
24814;DHT22;12904;50.088;11.414;2023-12-20T13:43:08;5.40;99.90
24814;DHT22;12904;50.088;11.414;2023-12-20T13:45:35;5.30;99.90
24814;DHT22;12904;50.088;11.414;2023-12-20T13:48:01;5.30;99.90
24814;DHT22;12904;50.088;11.414;2023-12-20T13:50:27;5.20;99.90
24814;DHT22;12904;50.088;11.414;2023-12-20T13:52:52;5.30;99.90
24814;DHT22;12904;50.088;11.414;2023-12-20T13:55:18;5.30;99.90
24814;DHT22;12904;50.088;11.414;2023-12-20T13:57:47;5.30;99.90
24814;DHT22;12904;50.088;11.414;2023-12-20T14:00:14;5.30;99.90
24814;DHT22;12904;50.088;11.414;2023-12-20T14:02:41;5.30;99.90
24814;DHT22;12904;50.088;11.414;2023-12-20T14:05:07;5.20;99.90
24814;DHT22;12904;50.088;11.414;2023-12-20T14:07:33;5.20;99.90
24814;DHT22;12904;50.088;11.414;2023-12-20T14:09:58;5.20;99.90
24814;DHT22;12904;50.088;11.414;2023-12-20T14:12:25;5.20;99.90
24814;DHT22;12904;50.088;11.414;2023-12-20T14:14:50;5.20;99.90
24814;DHT22;12904;50.088;11.414;2023-12-20T14:17:17;5.20;99.90
24814;DHT22;12904;50.088;11.414;2023-12-20T14:19:43;5.20;99.90
24814;DHT22;12904;50.088;11.414;2023-12-20T14:22:09;5.20;99.90
24814;DHT22;12904;50.088;11.414;2023-12-20T14:24:37;5.20;99.90
24814;DHT22;12904;50.088;11.414;2023-12-20T14:27:03;5.20;99.90
24814;DHT22;12904;50.088;11.414;2023-12-20T14:29:28;5.20;99.90
24814;DHT22;12904;50.088;11.414;2023-12-20T14:31:54;5.20;99.90
24814;DHT22;12904;50.088;11.414;2023-12-20T14:34:20;5.20;99.90
24814;DHT22;12904;50.088;11.414;2023-12-20T14:36:45;5.20;99.90
24814;DHT22;12904;50.088;11.414;2023-12-20T14:39:11;5.10;99.90
24814;DHT22;12904;50.088;11.414;2023-12-20T14:41:38;5.10;99.90
24814;DHT22;12904;50.088;11.414;2023-12-20T14:44:05;5.10;99.90
24814;DHT22;12904;50.088;11.414;2023-12-20T14:46:32;5.10;99.90
24814;DHT22;12904;50.088;11.414;2023-12-20T14:48:57;5.10;99.90
24814;DHT22;12904;50.088;11.414;2023-12-20T14:51:23;5.10;99.90
24814;DHT22;12904;50.088;11.414;2023-12-20T14:53:50;5.10;99.90
24814;DHT22;12904;50.088;11.414;2023-12-20T14:56:15;5.10;99.90
24814;DHT22;12904;50.088;11.414;2023-12-20T14:58:41;5.10;99.90
24814;DHT22;12904;50.088;11.414;2023-12-20T15:01:07;5.10;99.90
24814;DHT22;12904;50.088;11.414;2023-12-20T15:03:34;5.00;99.90
24814;DHT22;12904;50.088;11.414;2023-12-20T15:06:00;5.10;99.90
24814;DHT22;12904;50.088;11.414;2023-12-20T15:08:26;5.10;99.90
24814;DHT22;12904;50.088;11.414;2023-12-20T15:10:52;5.10;99.90
24814;DHT22;12904;50.088;11.414;2023-12-20T15:13:17;5.00;99.90
24814;DHT22;12904;50.088;11.414;2023-12-20T15:15:43;5.10;99.90
24814;DHT22;12904;50.088;11.414;2023-12-20T15:18:09;5.10;99.90
24814;DHT22;12904;50.088;11.414;2023-12-20T15:20:35;5.10;99.90
24814;DHT22;12904;50.088;11.414;2023-12-20T15:23:02;5.10;99.90
24814;DHT22;12904;50.088;11.414;2023-12-20T15:25:32;5.10;99.90
24814;DHT22;12904;50.088;11.414;2023-12-20T15:27:57;5.10;99.90